sensor_id;sensor_type;location;lat;lon;timestamp;pressure;altitude;pressure_sealevel;temperature;humidity
30614;BME280;17381;51.690;5.270;2023-04-04T00:00:14;102980.63;;;3.71;57.94
30614;BME280;17381;51.690;5.270;2023-04-04T00:02:53;102978.72;;;3.65;57.70
30614;BME280;17381;51.690;5.270;2023-04-04T00:05:41;102984.91;;;3.69;58.42
30614;BME280;17381;51.690;5.270;2023-04-04T00:08:10;102985.44;;;3.60;57.90
30614;BME280;17381;51.690;5.270;2023-04-04T00:11:08;102951.91;;;3.44;58.24
30614;BME280;17381;51.690;5.270;2023-04-04T00:13:41;102974.69;;;3.51;58.35
30614;BME280;17381;51.690;5.270;2023-04-04T00:16:29;102989.50;;;3.54;58.53
30614;BME280;17381;51.690;5.270;2023-04-04T00:19:08;102988.41;;;3.47;58.29
30614;BME280;17381;51.690;5.270;2023-04-04T00:21:52;102968.78;;;3.33;58.33
30614;BME280;17381;51.690;5.270;2023-04-04T00:24:31;102967.09;;;3.33;59.05
30614;BME280;17381;51.690;5.270;2023-04-04T00:27:39;102983.91;;;3.43;58.45
30614;BME280;17381;51.690;5.270;2023-04-04T00:30:07;102977.53;;;3.35;59.05
30614;BME280;17381;51.690;5.270;2023-04-04T00:32:47;102953.56;;;3.19;59.01
30614;BME280;17381;51.690;5.270;2023-04-04T00:35:41;102982.63;;;3.32;58.82
30614;BME280;17381;51.690;5.270;2023-04-04T00:38:21;102940.72;;;3.01;59.09
30614;BME280;17381;51.690;5.270;2023-04-04T00:48:20;102991.84;;;3.23;59.29
30614;BME280;17381;51.690;5.270;2023-04-04T00:51:10;102990.97;;;3.23;59.92
30614;BME280;17381;51.690;5.270;2023-04-04T00:54:00;102986.53;;;3.20;59.59
30614;BME280;17381;51.690;5.270;2023-04-04T00:56:49;102982.97;;;3.18;59.99
30614;BME280;17381;51.690;5.270;2023-04-04T01:00:04;102964.22;;;3.04;59.83
30614;BME280;17381;51.690;5.270;2023-04-04T01:03:02;102970.63;;;3.13;60.13
30614;BME280;17381;51.690;5.270;2023-04-04T01:05:51;102957.47;;;3.08;59.84
30614;BME280;17381;51.690;5.270;2023-04-04T01:08:49;102961.88;;;3.11;59.64
30614;BME280;17381;51.690;5.270;2023-04-04T01:11:33;102962.53;;;3.05;60.37
30614;BME280;17381;51.690;5.270;2023-04-04T01:14:14;102965.06;;;3.03;60.81
30614;BME280;17381;51.690;5.270;2023-04-04T01:17:16;102931.44;;;2.86;60.57
30614;BME280;17381;51.690;5.270;2023-04-04T01:20:14;102946.66;;;2.97;60.51
30614;BME280;17381;51.690;5.270;2023-04-04T01:22:55;102926.91;;;2.80;60.65
30614;BME280;17381;51.690;5.270;2023-04-04T01:25:42;102961.31;;;2.97;60.63
30614;BME280;17381;51.690;5.270;2023-04-04T01:28:24;102982.94;;;2.96;60.75
30614;BME280;17381;51.690;5.270;2023-04-04T01:30:54;102960.41;;;2.95;60.55
30614;BME280;17381;51.690;5.270;2023-04-04T01:33:35;102955.06;;;2.92;60.34
30614;BME280;17381;51.690;5.270;2023-04-04T01:39:26;102972.19;;;2.87;60.71
30614;BME280;17381;51.690;5.270;2023-04-04T01:42:03;102966.81;;;2.82;60.78
30614;BME280;17381;51.690;5.270;2023-04-04T01:44:52;102936.75;;;2.66;61.28
30614;BME280;17381;51.690;5.270;2023-04-04T01:47:48;102951.88;;;2.76;61.22
30614;BME280;17381;51.690;5.270;2023-04-04T01:50:27;102956.91;;;2.73;61.22
30614;BME280;17381;51.690;5.270;2023-04-04T01:53:18;102940.88;;;2.61;61.54
30614;BME280;17381;51.690;5.270;2023-04-04T01:55:44;102952.31;;;2.66;61.57
30614;BME280;17381;51.690;5.270;2023-04-04T01:58:23;102942.69;;;2.64;61.75
30614;BME280;17381;51.690;5.270;2023-04-04T02:00:56;102951.25;;;2.61;61.38
30614;BME280;17381;51.690;5.270;2023-04-04T02:03:39;102947.63;;;2.57;61.92
30614;BME280;17381;51.690;5.270;2023-04-04T02:06:17;102956.25;;;2.56;61.69
30614;BME280;17381;51.690;5.270;2023-04-04T02:09:05;102956.91;;;2.52;61.86
30614;BME280;17381;51.690;5.270;2023-04-04T02:11:48;102965.34;;;2.47;61.86
30614;BME280;17381;51.690;5.270;2023-04-04T02:14:18;102959.75;;;2.37;62.13
30614;BME280;17381;51.690;5.270;2023-04-04T02:17:01;102964.81;;;2.34;62.13
30614;BME280;17381;51.690;5.270;2023-04-04T02:19:31;102983.09;;;2.37;62.21
30614;BME280;17381;51.690;5.270;2023-04-04T02:22:01;102983.69;;;2.30;62.39
30614;BME280;17381;51.690;5.270;2023-04-04T02:24:36;102989.56;;;2.26;62.63
30614;BME280;17381;51.690;5.270;2023-04-04T02:27:28;102968.41;;;2.17;62.60
30614;BME280;17381;51.690;5.270;2023-04-04T02:30:11;102979.88;;;2.22;62.48
30614;BME280;17381;51.690;5.270;2023-04-04T02:33:02;102976.34;;;2.20;62.61
30614;BME280;17381;51.690;5.270;2023-04-04T02:35:45;102935.59;;;1.98;63.23
30614;BME280;17381;51.690;5.270;2023-04-04T02:38:38;102947.81;;;2.01;63.16
30614;BME280;17381;51.690;5.270;2023-04-04T02:41:24;102959.47;;;2.10;63.21
30614;BME280;17381;51.690;5.270;2023-04-04T02:44:05;102974.41;;;2.16;63.40
30614;BME280;17381;51.690;5.270;2023-04-04T02:46:38;102961.88;;;2.06;63.63
30614;BME280;17381;51.690;5.270;2023-04-04T02:49:24;102966.41;;;2.11;63.47
30614;BME280;17381;51.690;5.270;2023-04-04T02:51:58;102965.41;;;2.08;63.87
30614;BME280;17381;51.690;5.270;2023-04-04T02:54:43;102965.28;;;2.05;63.97
30614;BME280;17381;51.690;5.270;2023-04-04T02:57:35;102954.50;;;1.95;63.93
30614;BME280;17381;51.690;5.270;2023-04-04T03:00:10;102964.19;;;2.00;63.90
30614;BME280;17381;51.690;5.270;2023-04-04T03:05:09;102977.03;;;1.96;64.18
30614;BME280;17381;51.690;5.270;2023-04-04T03:07:53;102977.03;;;1.96;64.68
30614;BME280;17381;51.690;5.270;2023-04-04T03:10:52;102975.13;;;1.92;64.47
30614;BME280;17381;51.690;5.270;2023-04-04T03:13:26;102971.63;;;1.92;64.64
30614;BME280;17381;51.690;5.270;2023-04-04T03:16:06;102934.19;;;1.66;64.57
30614;BME280;17381;51.690;5.270;2023-04-04T03:18:54;102943.31;;;1.77;64.87
30614;BME280;17381;51.690;5.270;2023-04-04T03:21:36;102960.78;;;1.81;65.08
30614;BME280;17381;51.690;5.270;2023-04-04T03:24:07;102942.00;;;1.67;65.11
30614;BME280;17381;51.690;5.270;2023-04-04T03:26:41;102936.69;;;1.64;65.29
30614;BME280;17381;51.690;5.270;2023-04-04T03:29:14;102963.09;;;1.75;65.31
30614;BME280;17381;51.690;5.270;2023-04-04T03:31:43;102952.38;;;1.67;65.65
30614;BME280;17381;51.690;5.270;2023-04-04T03:34:31;102952.56;;;1.70;65.52
30614;BME280;17381;51.690;5.270;2023-04-04T03:37:14;102902.72;;;1.39;65.69
30614;BME280;17381;51.690;5.270;2023-04-04T03:39:54;102936.44;;;1.58;65.97
30614;BME280;17381;51.690;5.270;2023-04-04T03:42:33;102938.28;;;1.61;65.82
30614;BME280;17381;51.690;5.270;2023-04-04T03:45:33;102936.56;;;1.61;65.89
30614;BME280;17381;51.690;5.270;2023-04-04T03:48:16;102908.22;;;1.45;66.14
30614;BME280;17381;51.690;5.270;2023-04-04T03:51:14;102935.56;;;1.58;66.14
30614;BME280;17381;51.690;5.270;2023-04-04T03:53:58;102941.19;;;1.49;66.12
30614;BME280;17381;51.690;5.270;2023-04-04T03:56:27;102950.81;;;1.51;66.03
30614;BME280;17381;51.690;5.270;2023-04-04T03:59:14;102955.94;;;1.50;66.21
30614;BME280;17381;51.690;5.270;2023-04-04T04:01:58;102941.06;;;1.46;66.38
30614;BME280;17381;51.690;5.270;2023-04-04T04:04:34;102941.94;;;1.46;66.28
30614;BME280;17381;51.690;5.270;2023-04-04T04:07:15;102937.59;;;1.45;66.41
30614;BME280;17381;51.690;5.270;2023-04-04T04:09:58;102927.09;;;1.42;66.52
30614;BME280;17381;51.690;5.270;2023-04-04T04:12:41;102933.81;;;1.39;66.49
30614;BME280;17381;51.690;5.270;2023-04-04T04:15:20;102947.66;;;1.39;66.42
30614;BME280;17381;51.690;5.270;2023-04-04T04:17:58;102942.19;;;1.33;66.61
30614;BME280;17381;51.690;5.270;2023-04-04T04:20:35;102887.34;;;1.04;66.58
30614;BME280;17381;51.690;5.270;2023-04-04T04:23:20;102932.59;;;1.30;66.91
30614;BME280;17381;51.690;5.270;2023-04-04T04:26:04;102943.03;;;1.32;66.80
30614;BME280;17381;51.690;5.270;2023-04-04T04:29:08;102940.97;;;1.25;67.10
30614;BME280;17381;51.690;5.270;2023-04-04T04:32:30;102938.41;;;1.26;66.93
30614;BME280;17381;51.690;5.270;2023-04-04T04:35:08;102934.59;;;1.18;67.16
30614;BME280;17381;51.690;5.270;2023-04-04T04:37:37;102944.06;;;1.18;67.18
30614;BME280;17381;51.690;5.270;2023-04-04T04:40:13;102951.94;;;1.19;67.33
30614;BME280;17381;51.690;5.270;2023-04-04T04:42:53;102942.75;;;1.08;67.55
30614;BME280;17381;51.690;5.270;2023-04-04T04:45:36;102956.88;;;1.15;67.13
30614;BME280;17381;51.690;5.270;2023-04-04T04:48:21;102911.41;;;0.84;67.36
30614;BME280;17381;51.690;5.270;2023-04-04T04:51:05;102945.94;;;1.02;67.65
30614;BME280;17381;51.690;5.270;2023-04-04T04:53:57;102963.41;;;1.06;67.40
30614;BME280;17381;51.690;5.270;2023-04-04T04:56:40;102952.59;;;0.97;67.82
30614;BME280;17381;51.690;5.270;2023-04-04T04:59:10;102963.91;;;0.99;67.81
30614;BME280;17381;51.690;5.270;2023-04-04T05:01:57;102970.94;;;1.02;67.86
30614;BME280;17381;51.690;5.270;2023-04-04T05:04:51;102973.31;;;0.97;68.18
30614;BME280;17381;51.690;5.270;2023-04-04T05:07:19;102974.13;;;0.96;68.12
30614;BME280;17381;51.690;5.270;2023-04-04T05:09:59;102953.28;;;0.93;68.30
30614;BME280;17381;51.690;5.270;2023-04-04T05:13:09;102977.69;;;0.98;68.27
30614;BME280;17381;51.690;5.270;2023-04-04T05:15:51;102968.72;;;0.92;68.31
30614;BME280;17381;51.690;5.270;2023-04-04T05:18:33;102969.38;;;0.87;68.41
30614;BME280;17381;51.690;5.270;2023-04-04T05:21:04;102971.53;;;0.96;68.66
30614;BME280;17381;51.690;5.270;2023-04-04T05:23:57;102979.22;;;0.95;68.66
30614;BME280;17381;51.690;5.270;2023-04-04T05:26:32;102982.69;;;0.95;68.61
30614;BME280;17381;51.690;5.270;2023-04-04T05:29:10;102979.91;;;0.91;68.82
30614;BME280;17381;51.690;5.270;2023-04-04T05:31:44;102890.47;;;0.43;68.81
30614;BME280;17381;51.690;5.270;2023-04-04T05:34:20;102971.22;;;0.90;68.91
30614;BME280;17381;51.690;5.270;2023-04-04T05:37:00;102977.47;;;0.94;68.98
30614;BME280;17381;51.690;5.270;2023-04-04T05:39:45;102969.69;;;0.94;69.06
30614;BME280;17381;51.690;5.270;2023-04-04T05:42:23;102939.38;;;0.73;69.29
30614;BME280;17381;51.690;5.270;2023-04-04T05:44:59;102975.91;;;0.97;69.34
30614;BME280;17381;51.690;5.270;2023-04-04T05:47:51;102980.19;;;0.97;69.30
30614;BME280;17381;51.690;5.270;2023-04-04T05:50:21;102993.28;;;1.00;69.42
30614;BME280;17381;51.690;5.270;2023-04-04T05:52:57;102975.91;;;0.97;69.60
30614;BME280;17381;51.690;5.270;2023-04-04T05:55:35;102983.25;;;1.06;69.56
30614;BME280;17381;51.690;5.270;2023-04-04T05:58:19;102984.16;;;1.08;69.81
30614;BME280;17381;51.690;5.270;2023-04-04T06:00:53;102990.09;;;1.05;69.60
30614;BME280;17381;51.690;5.270;2023-04-04T06:03:47;102954.69;;;0.86;69.66
30614;BME280;17381;51.690;5.270;2023-04-04T06:06:22;102971.22;;;1.08;69.93
30614;BME280;17381;51.690;5.270;2023-04-04T06:08:56;102974.72;;;1.08;69.76
30614;BME280;17381;51.690;5.270;2023-04-04T06:11:40;102971.53;;;1.14;69.74
30614;BME280;17381;51.690;5.270;2023-04-04T06:14:24;102986.38;;;1.18;69.73
30614;BME280;17381;51.690;5.270;2023-04-04T06:17:03;102977.88;;;1.21;69.73
30614;BME280;17381;51.690;5.270;2023-04-04T06:19:38;102978.09;;;1.25;69.92
30614;BME280;17381;51.690;5.270;2023-04-04T06:22:10;102986.97;;;1.30;69.63
30614;BME280;17381;51.690;5.270;2023-04-04T06:24:41;102989.94;;;1.38;69.78
30614;BME280;17381;51.690;5.270;2023-04-04T06:27:20;102961.81;;;1.28;69.62
30614;BME280;17381;51.690;5.270;2023-04-04T06:30:00;102984.13;;;1.44;69.54
30614;BME280;17381;51.690;5.270;2023-04-04T06:32:31;102905.34;;;1.01;69.40
30614;BME280;17381;51.690;5.270;2023-04-04T06:35:08;102989.16;;;1.59;69.52
30614;BME280;17381;51.690;5.270;2023-04-04T06:37:59;102985.69;;;1.58;69.22
30614;BME280;17381;51.690;5.270;2023-04-04T06:40:30;102989.72;;;1.71;69.27
30614;BME280;17381;51.690;5.270;2023-04-04T06:43:03;102997.84;;;1.79;69.64
30614;BME280;17381;51.690;5.270;2023-04-04T06:45:35;102990.09;;;1.80;69.32
30614;BME280;17381;51.690;5.270;2023-04-04T06:48:05;102994.75;;;1.87;68.93
30614;BME280;17381;51.690;5.270;2023-04-04T06:50:56;103003.72;;;1.94;68.52
30614;BME280;17381;51.690;5.270;2023-04-04T06:53:29;102993.59;;;2.00;68.40
30614;BME280;17381;51.690;5.270;2023-04-04T06:56:28;102997.50;;;2.10;68.32
30614;BME280;17381;51.690;5.270;2023-04-04T06:59:00;102987.94;;;2.09;68.16
30614;BME280;17381;51.690;5.270;2023-04-04T07:01:50;102998.09;;;2.24;67.90
30614;BME280;17381;51.690;5.270;2023-04-04T07:04:35;102997.66;;;2.34;67.53
30614;BME280;17381;51.690;5.270;2023-04-04T07:07:28;102993.47;;;2.37;67.47
30614;BME280;17381;51.690;5.270;2023-04-04T07:10:41;103007.00;;;2.50;67.14
30614;BME280;17381;51.690;5.270;2023-04-04T07:13:24;103014.34;;;2.60;66.43
30614;BME280;17381;51.690;5.270;2023-04-04T07:16:26;103006.97;;;2.69;66.54
30614;BME280;17381;51.690;5.270;2023-04-04T07:19:19;102998.47;;;2.73;66.52
30614;BME280;17381;51.690;5.270;2023-04-04T07:22:07;103000.69;;;2.85;66.44
30614;BME280;17381;51.690;5.270;2023-04-04T07:24:43;103008.78;;;2.93;66.19
30614;BME280;17381;51.690;5.270;2023-04-04T07:27:38;103010.19;;;3.05;65.26
30614;BME280;17381;51.690;5.270;2023-04-04T07:30:13;103011.47;;;3.17;65.78
30614;BME280;17381;51.690;5.270;2023-04-04T07:33:14;102999.06;;;3.31;65.53
30614;BME280;17381;51.690;5.270;2023-04-04T07:35:59;103003.78;;;3.41;65.22
30614;BME280;17381;51.690;5.270;2023-04-04T07:38:44;102989.25;;;3.46;64.94
30614;BME280;17381;51.690;5.270;2023-04-04T07:41:49;102995.97;;;3.63;63.88
30614;BME280;17381;51.690;5.270;2023-04-04T07:44:35;102995.75;;;3.81;63.50
30614;BME280;17381;51.690;5.270;2023-04-04T07:47:18;102998.88;;;3.95;63.32
30614;BME280;17381;51.690;5.270;2023-04-04T07:50:07;102981.72;;;4.00;62.48
30614;BME280;17381;51.690;5.270;2023-04-04T07:52:52;102996.19;;;4.18;61.79
30614;BME280;17381;51.690;5.270;2023-04-04T07:55:26;102992.22;;;4.27;60.96
30614;BME280;17381;51.690;5.270;2023-04-04T07:58:07;102957.91;;;4.13;60.43
30614;BME280;17381;51.690;5.270;2023-04-04T08:00:55;102967.31;;;4.34;60.21
30614;BME280;17381;51.690;5.270;2023-04-04T08:03:24;102994.91;;;4.54;60.68
30614;BME280;17381;51.690;5.270;2023-04-04T08:05:59;102994.38;;;4.65;60.31
30614;BME280;17381;51.690;5.270;2023-04-04T08:08:37;102995.63;;;4.76;59.77
30614;BME280;17381;51.690;5.270;2023-04-04T08:11:15;102964.34;;;4.76;58.78
30614;BME280;17381;51.690;5.270;2023-04-04T08:13:47;102960.09;;;4.78;59.15
30614;BME280;17381;51.690;5.270;2023-04-04T08:16:34;102991.50;;;5.10;57.19
30614;BME280;17381;51.690;5.270;2023-04-04T08:19:10;102952.75;;;4.93;55.48
30614;BME280;17381;51.690;5.270;2023-04-04T08:22:14;102980.69;;;5.26;56.46
30614;BME280;17381;51.690;5.270;2023-04-04T08:24:50;102982.84;;;5.39;56.60
30614;BME280;17381;51.690;5.270;2023-04-04T08:27:25;102990.16;;;5.51;56.10
30614;BME280;17381;51.690;5.270;2023-04-04T08:29:50;102988.72;;;5.61;56.17
30614;BME280;17381;51.690;5.270;2023-04-04T08:32:23;102983.66;;;5.67;55.80
30614;BME280;17381;51.690;5.270;2023-04-04T08:34:59;102939.06;;;5.58;55.62
30614;BME280;17381;51.690;5.270;2023-04-04T08:37:43;102977.53;;;5.95;54.82
30614;BME280;17381;51.690;5.270;2023-04-04T08:40:18;102965.34;;;6.26;54.65
30614;BME280;17381;51.690;5.270;2023-04-04T08:42:58;102977.28;;;6.84;52.43
30614;BME280;17381;51.690;5.270;2023-04-04T08:45:33;102980.13;;;7.74;51.96
30614;BME280;17381;51.690;5.270;2023-04-04T08:48:10;102972.19;;;8.62;48.25
30614;BME280;17381;51.690;5.270;2023-04-04T08:50:50;102962.38;;;9.02;47.08
30614;BME280;17381;51.690;5.270;2023-04-04T08:53:31;102976.97;;;9.47;44.19
30614;BME280;17381;51.690;5.270;2023-04-04T08:56:02;102959.88;;;9.76;45.16
30614;BME280;17381;51.690;5.270;2023-04-04T08:58:45;102966.28;;;10.03;44.05
30614;BME280;17381;51.690;5.270;2023-04-04T09:01:21;102954.41;;;10.36;45.04
30614;BME280;17381;51.690;5.270;2023-04-04T09:03:55;102952.06;;;10.71;45.63
30614;BME280;17381;51.690;5.270;2023-04-04T09:06:30;102951.50;;;11.17;44.35
30614;BME280;17381;51.690;5.270;2023-04-04T09:08:58;102916.47;;;11.30;43.16
30614;BME280;17381;51.690;5.270;2023-04-04T09:11:25;102923.66;;;11.68;42.42
30614;BME280;17381;51.690;5.270;2023-04-04T09:13:56;102939.63;;;12.20;41.60
30614;BME280;17381;51.690;5.270;2023-04-04T09:16:39;102946.66;;;12.59;41.17
30614;BME280;17381;51.690;5.270;2023-04-04T09:19:08;102944.91;;;12.87;39.58
30614;BME280;17381;51.690;5.270;2023-04-04T09:21:48;102949.25;;;13.30;39.83
30614;BME280;17381;51.690;5.270;2023-04-04T09:24:20;102935.06;;;13.49;38.43
30614;BME280;17381;51.690;5.270;2023-04-04T09:26:54;102952.53;;;13.87;37.98
30614;BME280;17381;51.690;5.270;2023-04-04T09:29:26;102930.38;;;14.04;36.02
30614;BME280;17381;51.690;5.270;2023-04-04T09:31:51;102940.03;;;14.12;36.35
30614;BME280;17381;51.690;5.270;2023-04-04T09:34:29;102947.81;;;14.34;35.65
30614;BME280;17381;51.690;5.270;2023-04-04T09:37:03;102948.47;;;14.64;36.79
30614;BME280;17381;51.690;5.270;2023-04-04T09:39:37;102931.53;;;14.83;36.44
30614;BME280;17381;51.690;5.270;2023-04-04T09:42:19;102940.22;;;15.00;34.41
30614;BME280;17381;51.690;5.270;2023-04-04T09:44:53;102936.56;;;15.11;34.76
30614;BME280;17381;51.690;5.270;2023-04-04T09:47:23;102934.66;;;15.23;33.84
30614;BME280;17381;51.690;5.270;2023-04-04T09:50:05;102935.44;;;15.30;34.64
30614;BME280;17381;51.690;5.270;2023-04-04T09:52:40;102923.59;;;15.59;35.02
30614;BME280;17381;51.690;5.270;2023-04-04T09:55:08;102898.41;;;15.27;33.96
30614;BME280;17381;51.690;5.270;2023-04-04T09:57:37;102937.72;;;15.61;34.41
30614;BME280;17381;51.690;5.270;2023-04-04T10:00:14;102920.69;;;15.82;34.48
30614;BME280;17381;51.690;5.270;2023-04-04T10:02:49;102921.94;;;16.17;34.43
30614;BME280;17381;51.690;5.270;2023-04-04T10:05:31;102908.31;;;16.36;33.88
30614;BME280;17381;51.690;5.270;2023-04-04T10:08:20;102893.38;;;16.31;30.76
30614;BME280;17381;51.690;5.270;2023-04-04T10:10:56;102914.94;;;16.65;30.80
30614;BME280;17381;51.690;5.270;2023-04-04T10:13:35;102916.53;;;16.75;30.84
30614;BME280;17381;51.690;5.270;2023-04-04T10:16:08;102914.38;;;16.96;31.00
30614;BME280;17381;51.690;5.270;2023-04-04T10:19:04;102921.81;;;17.23;31.45
30614;BME280;17381;51.690;5.270;2023-04-04T10:21:37;102916.97;;;17.44;31.11
30614;BME280;17381;51.690;5.270;2023-04-04T10:24:22;102902.41;;;17.62;31.15
30614;BME280;17381;51.690;5.270;2023-04-04T10:26:57;102913.25;;;17.93;30.35
30614;BME280;17381;51.690;5.270;2023-04-04T10:29:43;102896.16;;;18.03;30.96
30614;BME280;17381;51.690;5.270;2023-04-04T10:32:22;102898.63;;;18.13;30.34
30614;BME280;17381;51.690;5.270;2023-04-04T10:34:59;102892.97;;;18.25;30.26
30614;BME280;17381;51.690;5.270;2023-04-04T10:38:05;102891.22;;;18.25;29.34
30614;BME280;17381;51.690;5.270;2023-04-04T10:40:41;102889.88;;;18.06;29.32
30614;BME280;17381;51.690;5.270;2023-04-04T10:43:13;102899.13;;;18.27;29.30
30614;BME280;17381;51.690;5.270;2023-04-04T10:46:11;102887.78;;;18.55;28.98
30614;BME280;17381;51.690;5.270;2023-04-04T10:48:46;102886.84;;;18.57;28.80
30614;BME280;17381;51.690;5.270;2023-04-04T10:51:15;102893.84;;;18.94;30.54
30614;BME280;17381;51.690;5.270;2023-04-04T10:53:51;102876.00;;;18.98;28.67
30614;BME280;17381;51.690;5.270;2023-04-04T10:56:27;102867.81;;;19.04;29.74
30614;BME280;17381;51.690;5.270;2023-04-04T10:59:21;102867.75;;;19.36;28.13
30614;BME280;17381;51.690;5.270;2023-04-04T11:01:59;102870.97;;;19.48;28.71
30614;BME280;17381;51.690;5.270;2023-04-04T11:04:46;102869.34;;;20.00;28.61
30614;BME280;17381;51.690;5.270;2023-04-04T11:07:20;102870.72;;;20.38;29.38
30614;BME280;17381;51.690;5.270;2023-04-04T11:10:00;102863.66;;;20.62;26.34
30614;BME280;17381;51.690;5.270;2023-04-04T11:12:30;102829.78;;;20.38;27.01
30614;BME280;17381;51.690;5.270;2023-04-04T11:15:11;102865.59;;;20.84;28.74
30614;BME280;17381;51.690;5.270;2023-04-04T11:18:00;102828.69;;;20.94;26.84
30614;BME280;17381;51.690;5.270;2023-04-04T11:20:45;102850.72;;;21.24;27.28
30614;BME280;17381;51.690;5.270;2023-04-04T11:23:20;102852.81;;;21.39;26.43
30614;BME280;17381;51.690;5.270;2023-04-04T11:34:12;102837.72;;;21.37;27.54
30614;BME280;17381;51.690;5.270;2023-04-04T11:36:47;102833.66;;;21.26;26.31
30614;BME280;17381;51.690;5.270;2023-04-04T11:42:10;102824.34;;;21.82;26.67
30614;BME280;17381;51.690;5.270;2023-04-04T11:47:22;102818.00;;;22.27;25.43
30614;BME280;17381;51.690;5.270;2023-04-04T11:49:59;102785.09;;;22.24;26.11
30614;BME280;17381;51.690;5.270;2023-04-04T11:52:32;102823.19;;;22.71;26.27
30614;BME280;17381;51.690;5.270;2023-04-04T11:55:23;102808.50;;;22.80;23.65
30614;BME280;17381;51.690;5.270;2023-04-04T11:58:04;102816.00;;;22.72;24.32
30614;BME280;17381;51.690;5.270;2023-04-04T12:00:36;102812.44;;;22.52;24.42
30614;BME280;17381;51.690;5.270;2023-04-04T12:03:28;102808.25;;;22.65;24.33
30614;BME280;17381;51.690;5.270;2023-04-04T12:05:59;102807.25;;;22.87;25.79
30614;BME280;17381;51.690;5.270;2023-04-04T12:08:31;102788.19;;;22.74;25.05
30614;BME280;17381;51.690;5.270;2023-04-04T12:11:09;102805.97;;;22.96;23.90
30614;BME280;17381;51.690;5.270;2023-04-04T12:13:55;102796.16;;;22.76;23.06
30614;BME280;17381;51.690;5.270;2023-04-04T12:16:27;102796.03;;;22.79;24.52
30614;BME280;17381;51.690;5.270;2023-04-04T12:19:04;102801.91;;;22.87;23.98
30614;BME280;17381;51.690;5.270;2023-04-04T12:21:45;102798.84;;;22.95;24.95
30614;BME280;17381;51.690;5.270;2023-04-04T12:24:11;102792.63;;;22.94;23.58
30614;BME280;17381;51.690;5.270;2023-04-04T12:26:47;102785.00;;;23.05;24.48
30614;BME280;17381;51.690;5.270;2023-04-04T12:29:19;102783.59;;;23.35;25.14
30614;BME280;17381;51.690;5.270;2023-04-04T12:32:03;102742.41;;;23.53;23.49
30614;BME280;17381;51.690;5.270;2023-04-04T12:34:41;102774.94;;;23.47;24.25
30614;BME280;17381;51.690;5.270;2023-04-04T12:37:22;102773.03;;;23.49;23.22
30614;BME280;17381;51.690;5.270;2023-04-04T12:39:57;102767.41;;;23.36;22.83
30614;BME280;17381;51.690;5.270;2023-04-04T12:42:39;102771.78;;;23.56;25.05
30614;BME280;17381;51.690;5.270;2023-04-04T12:45:06;102723.59;;;23.36;21.25
30614;BME280;17381;51.690;5.270;2023-04-04T12:47:54;102754.72;;;23.40;22.09
30614;BME280;17381;51.690;5.270;2023-04-04T12:50:32;102762.19;;;22.95;22.26
30614;BME280;17381;51.690;5.270;2023-04-04T12:53:22;102761.47;;;22.92;23.27
30614;BME280;17381;51.690;5.270;2023-04-04T12:55:59;102753.88;;;23.01;23.41
30614;BME280;17381;51.690;5.270;2023-04-04T12:58:40;102758.47;;;23.36;23.51
30614;BME280;17381;51.690;5.270;2023-04-04T13:01:28;102742.28;;;23.01;23.40
30614;BME280;17381;51.690;5.270;2023-04-04T13:04:08;102753.91;;;22.62;23.45
30614;BME280;17381;51.690;5.270;2023-04-04T13:06:48;102750.97;;;22.48;24.97
30614;BME280;17381;51.690;5.270;2023-04-04T13:09:25;102729.50;;;22.68;25.02
30614;BME280;17381;51.690;5.270;2023-04-04T13:12:04;102725.00;;;22.69;23.19
30614;BME280;17381;51.690;5.270;2023-04-04T13:15:02;102728.16;;;22.39;23.91
30614;BME280;17381;51.690;5.270;2023-04-04T13:17:52;102721.34;;;22.51;22.50
30614;BME280;17381;51.690;5.270;2023-04-04T13:20:56;102721.59;;;22.46;23.86
30614;BME280;17381;51.690;5.270;2023-04-04T13:23:40;102716.22;;;22.65;22.36
30614;BME280;17381;51.690;5.270;2023-04-04T13:26:12;102713.75;;;22.79;25.25
30614;BME280;17381;51.690;5.270;2023-04-04T13:28:50;102711.44;;;22.91;24.18
30614;BME280;17381;51.690;5.270;2023-04-04T13:31:30;102711.44;;;22.91;22.96
30614;BME280;17381;51.690;5.270;2023-04-04T13:34:05;102712.91;;;22.60;23.97
30614;BME280;17381;51.690;5.270;2023-04-04T13:36:49;102711.06;;;22.79;24.61
30614;BME280;17381;51.690;5.270;2023-04-04T13:39:27;102700.00;;;22.68;22.91
30614;BME280;17381;51.690;5.270;2023-04-04T13:41:59;102675.06;;;22.28;23.04
30614;BME280;17381;51.690;5.270;2023-04-04T13:44:32;102690.38;;;22.04;22.62
30614;BME280;17381;51.690;5.270;2023-04-04T13:47:05;102675.47;;;21.78;23.77
30614;BME280;17381;51.690;5.270;2023-04-04T13:49:45;102674.06;;;21.69;24.28
30614;BME280;17381;51.690;5.270;2023-04-04T13:52:37;102663.56;;;21.65;24.59
30614;BME280;17381;51.690;5.270;2023-04-04T13:55:14;102679.75;;;21.62;23.81
30614;BME280;17381;51.690;5.270;2023-04-04T13:57:48;102668.34;;;21.34;24.00
30614;BME280;17381;51.690;5.270;2023-04-04T14:00:29;102676.31;;;21.78;26.59
30614;BME280;17381;51.690;5.270;2023-04-04T14:03:02;102660.72;;;22.29;24.68
30614;BME280;17381;51.690;5.270;2023-04-04T14:05:33;102660.50;;;22.34;24.53
30614;BME280;17381;51.690;5.270;2023-04-04T14:08:08;102662.75;;;22.62;24.92
30614;BME280;17381;51.690;5.270;2023-04-04T14:10:39;102656.69;;;22.95;25.24
30614;BME280;17381;51.690;5.270;2023-04-04T14:13:15;102653.28;;;23.10;23.03
30614;BME280;17381;51.690;5.270;2023-04-04T14:15:46;102657.16;;;22.85;23.24
30614;BME280;17381;51.690;5.270;2023-04-04T14:18:14;102656.25;;;22.68;24.01
30614;BME280;17381;51.690;5.270;2023-04-04T14:20:48;102654.19;;;22.73;22.68
30614;BME280;17381;51.690;5.270;2023-04-04T14:23:22;102646.53;;;22.65;23.76
30614;BME280;17381;51.690;5.270;2023-04-04T14:25:59;102654.00;;;22.95;24.76
30614;BME280;17381;51.690;5.270;2023-04-04T14:28:33;102617.78;;;23.05;24.60
30614;BME280;17381;51.690;5.270;2023-04-04T14:31:07;102656.91;;;23.45;24.11